NWK221 YPPH-YGEL
Flight info
| Callsign | NWK221 |
|---|---|
| Flight time | 0h 48m |
| Altitude | 28000 |
| Route | AVNEX Q20 ONGAR W14 GEL |
| Aircraft | A320/M-SDE3FGHIRWY/LB1 |
Departure
| Time | 2026-05-06 12:16 |
|---|---|
| Airport | Perth International Airport (YPPH) |
Arrival
| Time | 2026-05-06 13:05 |
|---|---|
| Airport | Geraldton Airport (YGEL) |
| Time | Latitude | Longitude | Altitude | Speed | Heading |
|---|---|---|---|---|---|
| 2026-05-06 11:46 | -31.93343 | 115.96192 | 55 ft | 0 kts | 275° |
| 2026-05-06 12:07 | -31.93343 | 115.96195 | 53 ft | 2 kts | 275° |
| 2026-05-06 12:07 | -31.93345 | 115.96214 | 53 ft | 2 kts | 275° |
| 2026-05-06 12:07 | -31.93346 | 115.96233 | 48 ft | 2 kts | 275° |
| 2026-05-06 12:07 | -31.93348 | 115.96252 | 54 ft | 2 kts | 275° |
| 2026-05-06 12:08 | -31.93349 | 115.96271 | 53 ft | 2 kts | 281° |
| 2026-05-06 12:08 | -31.93353 | 115.96290 | 51 ft | 2 kts | 301° |
| 2026-05-06 12:08 | -31.93363 | 115.96305 | 52 ft | 2 kts | 328° |
| 2026-05-06 12:08 | -31.93378 | 115.96311 | 51 ft | 1 kts | 5° |
| 2026-05-06 12:11 | -31.93360 | 115.96313 | 52 ft | 4 kts | 5° |
| 2026-05-06 12:11 | -31.93321 | 115.96321 | 54 ft | 7 kts | 11° |
| 2026-05-06 12:12 | -31.93265 | 115.96330 | 50 ft | 9 kts | 1° |
| 2026-05-06 12:12 | -31.93195 | 115.96334 | 54 ft | 11 kts | 11° |
| 2026-05-06 12:12 | -31.93148 | 115.96349 | 53 ft | 10 kts | 21° |
| 2026-05-06 12:12 | -31.93067 | 115.96444 | 51 ft | 15 kts | 48° |
| 2026-05-06 12:13 | -31.93019 | 115.96505 | 50 ft | 16 kts | 47° |
| 2026-05-06 12:13 | -31.92942 | 115.96586 | 53 ft | 10 kts | 19° |
| 2026-05-06 12:13 | -31.92895 | 115.96599 | 51 ft | 10 kts | 13° |
| 2026-05-06 12:13 | -31.92844 | 115.96644 | 51 ft | 8 kts | 75° |
| 2026-05-06 12:14 | -31.92853 | 115.96704 | 51 ft | 0 kts | 103° |
| 2026-05-06 12:14 | -31.92856 | 115.96723 | 53 ft | 3 kts | 102° |
| 2026-05-06 12:15 | -31.92864 | 115.96766 | 54 ft | 8 kts | 102° |
| 2026-05-06 12:15 | -31.92902 | 115.96827 | 52 ft | 12 kts | 166° |
| 2026-05-06 12:15 | -31.92994 | 115.96805 | 51 ft | 16 kts | 195° |
| 2026-05-06 12:15 | -31.93312 | 115.96715 | 53 ft | 82 kts | 191° |
| 2026-05-06 12:16 | -31.94055 | 115.96499 | 61 ft | 133 kts | 194° |
| 2026-05-06 12:16 | -31.95062 | 115.96199 | 293 ft | 153 kts | 193° |
| 2026-05-06 12:16 | -31.96075 | 115.95892 | 890 ft | 150 kts | 192° |
| 2026-05-06 12:16 | -31.97111 | 115.95592 | 1439 ft | 152 kts | 188° |
| 2026-05-06 12:17 | -31.98130 | 115.95298 | 1974 ft | 148 kts | 185° |
| 2026-05-06 12:17 | -31.99196 | 115.94996 | 2229 ft | 166 kts | 184° |
| 2026-05-06 12:17 | -32.00427 | 115.94658 | 2371 ft | 196 kts | 186° |
| 2026-05-06 12:17 | -32.01816 | 115.94064 | 2672 ft | 230 kts | 211° |
| 2026-05-06 12:18 | -32.02812 | 115.92405 | 3069 ft | 265 kts | 253° |
| 2026-05-06 12:18 | -32.02938 | 115.90163 | 3693 ft | 282 kts | 276° |
| 2026-05-06 12:18 | -32.02604 | 115.87865 | 4636 ft | 286 kts | 283° |
| 2026-05-06 12:18 | -32.02137 | 115.85589 | 5697 ft | 286 kts | 284° |
| 2026-05-06 12:19 | -32.01667 | 115.83299 | 6649 ft | 287 kts | 283° |
| 2026-05-06 12:19 | -32.01243 | 115.81001 | 7490 ft | 289 kts | 281° |
| 2026-05-06 12:19 | -32.00862 | 115.78657 | 8300 ft | 292 kts | 279° |
| 2026-05-06 12:19 | -32.00518 | 115.76282 | 9124 ft | 295 kts | 278° |
| 2026-05-06 12:20 | -32.00193 | 115.73882 | 9932 ft | 299 kts | 277° |
| 2026-05-06 12:20 | -31.99876 | 115.71427 | 10511 ft | 311 kts | 277° |
| 2026-05-06 12:20 | -31.99549 | 115.68843 | 10825 ft | 330 kts | 277° |
| 2026-05-06 12:20 | -31.99163 | 115.66088 | 11086 ft | 349 kts | 279° |
| 2026-05-06 12:21 | -31.98683 | 115.63258 | 11663 ft | 356 kts | 281° |
| 2026-05-06 12:21 | -31.98152 | 115.60396 | 12304 ft | 360 kts | 281° |
| 2026-05-06 12:21 | -31.97596 | 115.57501 | 12964 ft | 364 kts | 281° |
| 2026-05-06 12:21 | -31.97037 | 115.54577 | 13614 ft | 368 kts | 281° |
| 2026-05-06 12:22 | -31.96269 | 115.51678 | 14259 ft | 374 kts | 292° |
| 2026-05-06 12:22 | -31.95099 | 115.48920 | 14816 ft | 378 kts | 297° |
| 2026-05-06 12:22 | -31.93868 | 115.46175 | 15392 ft | 382 kts | 299° |
| 2026-05-06 12:22 | -31.92339 | 115.43607 | 15947 ft | 386 kts | 311° |
| 2026-05-06 12:23 | -31.90375 | 115.41444 | 16498 ft | 389 kts | 324° |
| 2026-05-06 12:23 | -31.88051 | 115.39806 | 17052 ft | 392 kts | 336° |
| 2026-05-06 12:23 | -31.85481 | 115.38721 | 17630 ft | 393 kts | 344° |
| 2026-05-06 12:23 | -31.82862 | 115.37761 | 18227 ft | 396 kts | 344° |
| 2026-05-06 12:24 | -31.80258 | 115.36799 | 18811 ft | 399 kts | 343° |
| 2026-05-06 12:24 | -31.77621 | 115.35819 | 19321 ft | 403 kts | 343° |
| 2026-05-06 12:24 | -31.74926 | 115.34898 | 19865 ft | 405 kts | 349° |
| 2026-05-06 12:24 | -31.72331 | 115.34486 | 20365 ft | 406 kts | 359° |
| 2026-05-06 12:25 | -31.69314 | 115.34628 | 20937 ft | 407 kts | 9° |
| 2026-05-06 12:25 | -31.66527 | 115.35227 | 21462 ft | 408 kts | 17° |
| 2026-05-06 12:25 | -31.63912 | 115.36314 | 21957 ft | 409 kts | 27° |
| 2026-05-06 12:25 | -31.61365 | 115.37828 | 22452 ft | 411 kts | 30° |
| 2026-05-06 12:26 | -31.58818 | 115.39378 | 22944 ft | 414 kts | 30° |
| 2026-05-06 12:26 | -31.56255 | 115.40939 | 23419 ft | 417 kts | 29° |
| 2026-05-06 12:26 | -31.53667 | 115.42512 | 23886 ft | 420 kts | 29° |
| 2026-05-06 12:26 | -31.51061 | 115.44096 | 24278 ft | 423 kts | 29° |
| 2026-05-06 12:27 | -31.48430 | 115.45690 | 24677 ft | 426 kts | 29° |
| 2026-05-06 12:27 | -31.45790 | 115.47285 | 25056 ft | 429 kts | 29° |
| 2026-05-06 12:27 | -31.43134 | 115.48887 | 25432 ft | 431 kts | 29° |
| 2026-05-06 12:27 | -31.40456 | 115.50502 | 25800 ft | 433 kts | 28° |
| 2026-05-06 12:28 | -31.37766 | 115.52126 | 26163 ft | 436 kts | 28° |
| 2026-05-06 12:28 | -31.35073 | 115.53749 | 26526 ft | 438 kts | 28° |
| 2026-05-06 12:28 | -31.32350 | 115.55389 | 26886 ft | 440 kts | 28° |
| 2026-05-06 12:28 | -31.29624 | 115.57031 | 27244 ft | 442 kts | 28° |
| 2026-05-06 12:29 | -31.26878 | 115.58687 | 27600 ft | 445 kts | 28° |
| 2026-05-06 12:29 | -31.24119 | 115.60352 | 27949 ft | 447 kts | 28° |
| 2026-05-06 12:29 | -31.21355 | 115.62022 | 28286 ft | 449 kts | 28° |
| 2026-05-06 12:29 | -31.18574 | 115.63700 | 28387 ft | 447 kts | 28° |
| 2026-05-06 12:30 | -31.13089 | 115.66999 | 28409 ft | 441 kts | 28° |
| 2026-05-06 12:30 | -31.07633 | 115.70269 | 28411 ft | 441 kts | 28° |
| 2026-05-06 12:31 | -31.02181 | 115.73534 | 28407 ft | 441 kts | 28° |
| 2026-05-06 12:31 | -30.96727 | 115.76802 | 28405 ft | 441 kts | 28° |
| 2026-05-06 12:32 | -30.91271 | 115.80056 | 28403 ft | 441 kts | 28° |
| 2026-05-06 12:32 | -30.85663 | 115.82949 | 28404 ft | 442 kts | 15° |
| 2026-05-06 12:33 | -30.82631 | 115.83528 | 28400 ft | 443 kts | 3° |
| 2026-05-06 12:33 | -30.79552 | 115.83389 | 28399 ft | 443 kts | 351° |
| 2026-05-06 12:33 | -30.76557 | 115.82537 | 28390 ft | 443 kts | 340° |
| 2026-05-06 12:33 | -30.73773 | 115.81030 | 28387 ft | 443 kts | 329° |
| 2026-05-06 12:34 | -30.68391 | 115.77429 | 28381 ft | 444 kts | 329° |
| 2026-05-06 12:34 | -30.63025 | 115.73840 | 28390 ft | 445 kts | 329° |
| 2026-05-06 12:35 | -30.57657 | 115.70253 | 28390 ft | 446 kts | 329° |
| 2026-05-06 12:35 | -30.52304 | 115.66690 | 28389 ft | 446 kts | 329° |
| 2026-05-06 12:36 | -30.46920 | 115.63106 | 28392 ft | 446 kts | 329° |
| 2026-05-06 12:36 | -30.41501 | 115.59503 | 28394 ft | 446 kts | 329° |
| 2026-05-06 12:37 | -30.36116 | 115.55931 | 28392 ft | 446 kts | 329° |
| 2026-05-06 12:37 | -30.30744 | 115.52361 | 28388 ft | 445 kts | 329° |
| 2026-05-06 12:38 | -30.25381 | 115.48811 | 28336 ft | 440 kts | 329° |
| 2026-05-06 12:38 | -30.22709 | 115.47041 | 27897 ft | 433 kts | 329° |
| 2026-05-06 12:38 | -30.20990 | 115.45898 | 27571 ft | 430 kts | 329° |
| 2026-05-06 12:39 | -30.18401 | 115.44180 | 27066 ft | 427 kts | 330° |
| 2026-05-06 12:39 | -30.15839 | 115.42489 | 26572 ft | 423 kts | 330° |
| 2026-05-06 12:39 | -30.13286 | 115.40804 | 26094 ft | 421 kts | 330° |
| 2026-05-06 12:39 | -30.10749 | 115.39133 | 25643 ft | 418 kts | 330° |
| 2026-05-06 12:40 | -30.08228 | 115.37473 | 25183 ft | 415 kts | 330° |
| 2026-05-06 12:40 | -30.05723 | 115.35824 | 24755 ft | 413 kts | 330° |
| 2026-05-06 12:40 | -30.03237 | 115.34187 | 24353 ft | 411 kts | 330° |
| 2026-05-06 12:40 | -30.00766 | 115.32561 | 23970 ft | 408 kts | 330° |
| 2026-05-06 12:41 | -29.98307 | 115.30940 | 23518 ft | 406 kts | 330° |
| 2026-05-06 12:41 | -29.95864 | 115.29329 | 23069 ft | 403 kts | 330° |
| 2026-05-06 12:41 | -29.93433 | 115.27728 | 22625 ft | 400 kts | 330° |
| 2026-05-06 12:41 | -29.91025 | 115.26146 | 22185 ft | 397 kts | 330° |
| 2026-05-06 12:42 | -29.88632 | 115.24572 | 21747 ft | 394 kts | 330° |
| 2026-05-06 12:42 | -29.86254 | 115.23012 | 21296 ft | 391 kts | 329° |
| 2026-05-06 12:42 | -29.83899 | 115.21469 | 20865 ft | 389 kts | 330° |
| 2026-05-06 12:42 | -29.81554 | 115.19934 | 20415 ft | 386 kts | 329° |
| 2026-05-06 12:43 | -29.79225 | 115.18407 | 19957 ft | 383 kts | 329° |
| 2026-05-06 12:43 | -29.76914 | 115.16889 | 19518 ft | 381 kts | 329° |
| 2026-05-06 12:43 | -29.74625 | 115.15389 | 19084 ft | 378 kts | 329° |
| 2026-05-06 12:43 | -29.72343 | 115.13897 | 18638 ft | 376 kts | 329° |
| 2026-05-06 12:44 | -29.70077 | 115.12412 | 18140 ft | 373 kts | 329° |
| 2026-05-06 12:44 | -29.67833 | 115.10941 | 17659 ft | 371 kts | 330° |
| 2026-05-06 12:44 | -29.65591 | 115.09474 | 17147 ft | 369 kts | 330° |
| 2026-05-06 12:44 | -29.63370 | 115.08022 | 16679 ft | 367 kts | 330° |
| 2026-05-06 12:45 | -29.61152 | 115.06575 | 16226 ft | 364 kts | 331° |
| 2026-05-06 12:45 | -29.58950 | 115.05143 | 15756 ft | 362 kts | 331° |
| 2026-05-06 12:45 | -29.54594 | 115.02311 | 14874 ft | 358 kts | 331° |
| 2026-05-06 12:46 | -29.52438 | 115.00903 | 14423 ft | 356 kts | 332° |
| 2026-05-06 12:46 | -29.50288 | 114.99498 | 13975 ft | 354 kts | 332° |
| 2026-05-06 12:46 | -29.48152 | 114.98103 | 13509 ft | 352 kts | 332° |
| 2026-05-06 12:46 | -29.46037 | 114.96724 | 13280 ft | 351 kts | 332° |
| 2026-05-06 12:47 | -29.43912 | 114.95346 | 13017 ft | 351 kts | 332° |
| 2026-05-06 12:47 | -29.41788 | 114.93969 | 12760 ft | 350 kts | 332° |
| 2026-05-06 12:47 | -29.39671 | 114.92600 | 12507 ft | 348 kts | 332° |
| 2026-05-06 12:47 | -29.37564 | 114.91238 | 12260 ft | 347 kts | 333° |
| 2026-05-06 12:48 | -29.35474 | 114.89883 | 12011 ft | 345 kts | 332° |
| 2026-05-06 12:48 | -29.33381 | 114.88525 | 11767 ft | 344 kts | 333° |
| 2026-05-06 12:48 | -29.31305 | 114.87175 | 11515 ft | 342 kts | 333° |
| 2026-05-06 12:48 | -29.29237 | 114.85829 | 11271 ft | 341 kts | 333° |
| 2026-05-06 12:49 | -29.27182 | 114.84495 | 11050 ft | 340 kts | 333° |
| 2026-05-06 12:49 | -29.25122 | 114.83162 | 10806 ft | 339 kts | 333° |
| 2026-05-06 12:49 | -29.23079 | 114.81841 | 10562 ft | 337 kts | 333° |
| 2026-05-06 12:49 | -29.21027 | 114.80541 | 10321 ft | 335 kts | 337° |
| 2026-05-06 12:50 | -29.18871 | 114.79620 | 10077 ft | 330 kts | 349° |
| 2026-05-06 12:50 | -29.16646 | 114.79096 | 9887 ft | 320 kts | 352° |
| 2026-05-06 12:50 | -29.14522 | 114.78620 | 9758 ft | 309 kts | 352° |
| 2026-05-06 12:50 | -29.12426 | 114.78145 | 9624 ft | 299 kts | 352° |
| 2026-05-06 12:51 | -29.10411 | 114.77687 | 9491 ft | 294 kts | 352° |
| 2026-05-06 12:51 | -29.08406 | 114.77231 | 9362 ft | 293 kts | 352° |
| 2026-05-06 12:51 | -29.06414 | 114.76781 | 9234 ft | 292 kts | 352° |
| 2026-05-06 12:51 | -29.04417 | 114.76331 | 9103 ft | 292 kts | 352° |
| 2026-05-06 12:52 | -29.02429 | 114.75883 | 8976 ft | 291 kts | 352° |
| 2026-05-06 12:52 | -29.00446 | 114.75434 | 8721 ft | 289 kts | 352° |
| 2026-05-06 12:52 | -28.98481 | 114.74991 | 8396 ft | 287 kts | 352° |
| 2026-05-06 12:52 | -28.96520 | 114.74550 | 8065 ft | 286 kts | 352° |
| 2026-05-06 12:53 | -28.94573 | 114.74111 | 7750 ft | 285 kts | 352° |
| 2026-05-06 12:53 | -28.92632 | 114.73673 | 7424 ft | 283 kts | 352° |
| 2026-05-06 12:53 | -28.90702 | 114.73237 | 7136 ft | 281 kts | 352° |
| 2026-05-06 12:53 | -28.88816 | 114.72811 | 7009 ft | 271 kts | 353° |
| 2026-05-06 12:54 | -28.87030 | 114.72404 | 6894 ft | 253 kts | 353° |
| 2026-05-06 12:54 | -28.85361 | 114.72023 | 6690 ft | 238 kts | 353° |
| 2026-05-06 12:54 | -28.83754 | 114.71659 | 6255 ft | 234 kts | 353° |
| 2026-05-06 12:54 | -28.82203 | 114.71310 | 6066 ft | 220 kts | 354° |
| 2026-05-06 12:55 | -28.80725 | 114.70978 | 5868 ft | 214 kts | 355° |
| 2026-05-06 12:55 | -28.79277 | 114.70877 | 5497 ft | 205 kts | 11° |
| 2026-05-06 12:55 | -28.77907 | 114.71194 | 5098 ft | 197 kts | 26° |
| 2026-05-06 12:55 | -28.76664 | 114.71803 | 4679 ft | 194 kts | 30° |
| 2026-05-06 12:56 | -28.75433 | 114.72429 | 4289 ft | 192 kts | 31° |
| 2026-05-06 12:56 | -28.74215 | 114.73044 | 3891 ft | 191 kts | 31° |
| 2026-05-06 12:56 | -28.73003 | 114.73654 | 3498 ft | 190 kts | 31° |
| 2026-05-06 12:56 | -28.71837 | 114.74236 | 3342 ft | 174 kts | 32° |
| 2026-05-06 12:57 | -28.70770 | 114.74764 | 3200 ft | 160 kts | 32° |
| 2026-05-06 12:57 | -28.69792 | 114.75250 | 3038 ft | 147 kts | 33° |
| 2026-05-06 12:57 | -28.68877 | 114.75708 | 2888 ft | 139 kts | 34° |
| 2026-05-06 12:57 | -28.68021 | 114.76138 | 2633 ft | 133 kts | 34° |
| 2026-05-06 12:58 | -28.67173 | 114.76569 | 2302 ft | 133 kts | 34° |
| 2026-05-06 12:58 | -28.66334 | 114.76996 | 1953 ft | 133 kts | 35° |
| 2026-05-06 12:58 | -28.65497 | 114.77421 | 1829 ft | 133 kts | 35° |
| 2026-05-06 12:58 | -28.64647 | 114.77854 | 1823 ft | 134 kts | 34° |
| 2026-05-06 12:59 | -28.63791 | 114.78288 | 1820 ft | 135 kts | 33° |
| 2026-05-06 12:59 | -28.62845 | 114.78509 | 1821 ft | 146 kts | 7° |
| 2026-05-06 12:59 | -28.61837 | 114.78155 | 1823 ft | 160 kts | 335° |
| 2026-05-06 12:59 | -28.61077 | 114.77189 | 1814 ft | 170 kts | 297° |
| 2026-05-06 13:00 | -28.60901 | 114.75866 | 1819 ft | 171 kts | 258° |
| 2026-05-06 13:00 | -28.61370 | 114.74680 | 1815 ft | 161 kts | 220° |
| 2026-05-06 13:00 | -28.62241 | 114.73989 | 1815 ft | 148 kts | 189° |
| 2026-05-06 13:00 | -28.63217 | 114.73864 | 1809 ft | 137 kts | 162° |
| 2026-05-06 13:01 | -28.64157 | 114.73983 | 1815 ft | 135 kts | 163° |
| 2026-05-06 13:01 | -28.65081 | 114.74094 | 1813 ft | 133 kts | 163° |
| 2026-05-06 13:01 | -28.66003 | 114.74206 | 1807 ft | 136 kts | 164° |
| 2026-05-06 13:01 | -28.66950 | 114.74322 | 1818 ft | 138 kts | 164° |
| 2026-05-06 13:02 | -28.67918 | 114.74438 | 1819 ft | 137 kts | 164° |
| 2026-05-06 13:02 | -28.68861 | 114.74550 | 1812 ft | 136 kts | 164° |
| 2026-05-06 13:02 | -28.69799 | 114.74662 | 1811 ft | 135 kts | 163° |
| 2026-05-06 13:02 | -28.70739 | 114.74693 | 1797 ft | 143 kts | 178° |
| 2026-05-06 13:03 | -28.71715 | 114.74320 | 1815 ft | 152 kts | 194° |
| 2026-05-06 13:03 | -28.72689 | 114.73800 | 1775 ft | 154 kts | 198° |
| 2026-05-06 13:03 | -28.73617 | 114.73178 | 1513 ft | 154 kts | 201° |
| 2026-05-06 13:03 | -28.74549 | 114.72624 | 1144 ft | 147 kts | 194° |
| 2026-05-06 13:04 | -28.75491 | 114.72229 | 922 ft | 143 kts | 192° |
| 2026-05-06 13:04 | -28.76424 | 114.71906 | 687 ft | 140 kts | 189° |
| 2026-05-06 13:04 | -28.77351 | 114.71584 | 510 ft | 136 kts | 196° |
| 2026-05-06 13:04 | -28.78234 | 114.71198 | 303 ft | 135 kts | 197° |
| 2026-05-06 13:05 | -28.79101 | 114.70857 | 135 ft | 129 kts | 193° |
| 2026-05-06 13:05 | -28.79652 | 114.70646 | 117 ft | 26 kts | 205° |
| 2026-05-06 13:05 | -28.79816 | 114.70577 | 115 ft | 26 kts | 197° |
| 2026-05-06 13:05 | -28.79998 | 114.70509 | 112 ft | 29 kts | 198° |
| 2026-05-06 13:06 | -28.80196 | 114.70436 | 109 ft | 31 kts | 198° |
| 2026-05-06 13:06 | -28.80348 | 114.70379 | 108 ft | 15 kts | 198° |
| 2026-05-06 13:06 | -28.80414 | 114.70349 | 108 ft | 7 kts | 219° |
| 2026-05-06 13:06 | -28.80435 | 114.70341 | 108 ft | 1 kts | 116° |
| 2026-05-06 13:07 | -28.80422 | 114.70351 | 107 ft | 4 kts | 34° |
| 2026-05-06 13:07 | -28.80379 | 114.70369 | 107 ft | 9 kts | 17° |
| 2026-05-06 13:07 | -28.80303 | 114.70395 | 108 ft | 14 kts | 18° |
| 2026-05-06 13:07 | -28.80198 | 114.70436 | 108 ft | 18 kts | 18° |
| 2026-05-06 13:08 | -28.80070 | 114.70484 | 111 ft | 21 kts | 17° |
| 2026-05-06 13:08 | -28.79921 | 114.70539 | 114 ft | 24 kts | 18° |
| 2026-05-06 13:08 | -28.79762 | 114.70600 | 116 ft | 19 kts | 18° |
| 2026-05-06 13:08 | -28.79695 | 114.70625 | 117 ft | 7 kts | 18° |
| 2026-05-06 13:09 | -28.79640 | 114.70627 | 117 ft | 10 kts | 317° |
| 2026-05-06 13:09 | -28.79607 | 114.70535 | 117 ft | 14 kts | 288° |
| 2026-05-06 13:09 | -28.79584 | 114.70458 | 114 ft | 9 kts | 288° |
| 2026-05-06 13:09 | -28.79559 | 114.70373 | 94 ft | 12 kts | 289° |
| 2026-05-06 13:10 | -28.79548 | 114.70318 | 119 ft | 4 kts | 250° |
| 2026-05-06 13:10 | -28.79563 | 114.70316 | 115 ft | 0 kts | 177° |